sensor_id;sensor_type;location;lat;lon;timestamp;pressure;altitude;pressure_sealevel;temperature;humidity
23229;BME280;11783;50.350;6.576;2023-05-09T00:00:28;96436.66;;;15.91;100.00
23229;BME280;11783;50.350;6.576;2023-05-09T00:02:54;96429.16;;;15.93;100.00
23229;BME280;11783;50.350;6.576;2023-05-09T00:05:20;96428.38;;;15.88;100.00
23229;BME280;11783;50.350;6.576;2023-05-09T00:07:46;96436.69;;;15.86;100.00
23229;BME280;11783;50.350;6.576;2023-05-09T00:10:12;96431.59;;;15.90;100.00
23229;BME280;11783;50.350;6.576;2023-05-09T00:12:38;96422.47;;;15.91;100.00
23229;BME280;11783;50.350;6.576;2023-05-09T00:15:04;96420.31;;;15.93;100.00
23229;BME280;11783;50.350;6.576;2023-05-09T00:17:32;96421.91;;;15.94;100.00
23229;BME280;11783;50.350;6.576;2023-05-09T00:19:58;96422.44;;;15.96;100.00
23229;BME280;11783;50.350;6.576;2023-05-09T00:22:26;96420.84;;;15.95;100.00
23229;BME280;11783;50.350;6.576;2023-05-09T00:24:51;96412.81;;;15.95;100.00
23229;BME280;11783;50.350;6.576;2023-05-09T00:27:16;96403.16;;;15.94;100.00
23229;BME280;11783;50.350;6.576;2023-05-09T00:29:42;96395.66;;;15.91;100.00
23229;BME280;11783;50.350;6.576;2023-05-09T00:32:08;96398.63;;;15.89;100.00
23229;BME280;11783;50.350;6.576;2023-05-09T00:34:33;96393.00;;;15.86;100.00
23229;BME280;11783;50.350;6.576;2023-05-09T00:36:59;96402.38;;;15.88;100.00
23229;BME280;11783;50.350;6.576;2023-05-09T00:39:24;96403.72;;;15.91;100.00
23229;BME280;11783;50.350;6.576;2023-05-09T00:41:50;96398.63;;;15.89;100.00
23229;BME280;11783;50.350;6.576;2023-05-09T00:44:16;96394.88;;;15.90;100.00
23229;BME280;11783;50.350;6.576;2023-05-09T00:46:42;96394.59;;;15.92;100.00
23229;BME280;11783;50.350;6.576;2023-05-09T00:49:07;96391.91;;;15.92;100.00
23229;BME280;11783;50.350;6.576;2023-05-09T00:51:35;96387.63;;;15.91;100.00
23229;BME280;11783;50.350;6.576;2023-05-09T00:54:01;96384.13;;;15.95;100.00
23229;BME280;11783;50.350;6.576;2023-05-09T00:56:26;96377.97;;;15.90;100.00
23229;BME280;11783;50.350;6.576;2023-05-09T00:58:52;96372.09;;;15.88;100.00
23229;BME280;11783;50.350;6.576;2023-05-09T01:01:19;96375.03;;;15.91;100.00
23229;BME280;11783;50.350;6.576;2023-05-09T01:03:45;96365.09;;;15.92;100.00
23229;BME280;11783;50.350;6.576;2023-05-09T01:09:03;96360.28;;;15.89;100.00
23229;BME280;11783;50.350;6.576;2023-05-09T01:17:22;96359.50;;;15.88;100.00
23229;BME280;11783;50.350;6.576;2023-05-09T01:19:58;96364.06;;;15.88;100.00
23229;BME280;11783;50.350;6.576;2023-05-09T01:22:29;96354.13;;;15.88;100.00
23229;BME280;11783;50.350;6.576;2023-05-09T01:25:05;96350.09;;;15.91;100.00
23229;BME280;11783;50.350;6.576;2023-05-09T01:30:10;96360.53;;;15.92;100.00
23229;BME280;11783;50.350;6.576;2023-05-09T01:32:37;96352.50;;;15.92;100.00
23229;BME280;11783;50.350;6.576;2023-05-09T01:35:04;96355.44;;;15.96;100.00
23229;BME280;11783;50.350;6.576;2023-05-09T01:37:38;96350.88;;;15.96;100.00
23229;BME280;11783;50.350;6.576;2023-05-09T01:40:09;96341.50;;;15.94;100.00
23229;BME280;11783;50.350;6.576;2023-05-09T01:42:57;96330.28;;;15.87;100.00
23229;BME280;11783;50.350;6.576;2023-05-09T01:45:25;96332.97;;;15.87;100.00
23229;BME280;11783;50.350;6.576;2023-05-09T01:47:52;96337.25;;;15.88;100.00
23229;BME280;11783;50.350;6.576;2023-05-09T01:50:19;96333.25;;;15.85;100.00
23229;BME280;11783;50.350;6.576;2023-05-09T01:52:48;96333.78;;;15.82;100.00
23229;BME280;11783;50.350;6.576;2023-05-09T01:55:14;96329.50;;;15.81;100.00
23229;BME280;11783;50.350;6.576;2023-05-09T01:57:42;96322.81;;;15.84;100.00
23229;BME280;11783;50.350;6.576;2023-05-09T02:00:09;96333.78;;;15.82;100.00
23229;BME280;11783;50.350;6.576;2023-05-09T02:02:37;96335.66;;;15.77;100.00
23229;BME280;11783;50.350;6.576;2023-05-09T02:05:04;96332.47;;;15.74;100.00
23229;BME280;11783;50.350;6.576;2023-05-09T02:07:31;96323.34;;;15.75;100.00
23229;BME280;11783;50.350;6.576;2023-05-09T02:09:57;96328.44;;;15.77;100.00
23229;BME280;11783;50.350;6.576;2023-05-09T02:12:23;96331.41;;;15.70;100.00
23229;BME280;11783;50.350;6.576;2023-05-09T02:14:49;96334.38;;;15.69;100.00
23229;BME280;11783;50.350;6.576;2023-05-09T02:17:15;96333.00;;;15.71;100.00
23229;BME280;11783;50.350;6.576;2023-05-09T02:19:42;96328.72;;;15.70;100.00
23229;BME280;11783;50.350;6.576;2023-05-09T02:22:07;96318.53;;;15.72;100.00
23229;BME280;11783;50.350;6.576;2023-05-09T02:24:33;96315.59;;;15.74;100.00
23229;BME280;11783;50.350;6.576;2023-05-09T02:26:59;96325.53;;;15.63;100.00
23229;BME280;11783;50.350;6.576;2023-05-09T02:29:31;96307.59;;;15.64;100.00
23229;BME280;11783;50.350;6.576;2023-05-09T02:32:07;96303.84;;;15.60;100.00
23229;BME280;11783;50.350;6.576;2023-05-09T02:34:33;96295.50;;;15.56;100.00
23229;BME280;11783;50.350;6.576;2023-05-09T02:36:59;96305.97;;;15.53;100.00
23229;BME280;11783;50.350;6.576;2023-05-09T02:39:25;96309.75;;;15.47;100.00
23229;BME280;11783;50.350;6.576;2023-05-09T02:41:50;96312.16;;;15.43;100.00
23229;BME280;11783;50.350;6.576;2023-05-09T02:44:16;96314.03;;;15.48;100.00
23229;BME280;11783;50.350;6.576;2023-05-09T02:46:41;96315.34;;;15.55;100.00
23229;BME280;11783;50.350;6.576;2023-05-09T02:49:06;96318.31;;;15.49;100.00
23229;BME280;11783;50.350;6.576;2023-05-09T02:51:32;96319.38;;;15.42;100.00
23229;BME280;11783;50.350;6.576;2023-05-09T02:53:57;96318.84;;;15.40;100.00
23229;BME280;11783;50.350;6.576;2023-05-09T02:56:22;96316.47;;;15.44;100.00
23229;BME280;11783;50.350;6.576;2023-05-09T02:58:48;96311.09;;;15.49;100.00
23229;BME280;11783;50.350;6.576;2023-05-09T03:01:16;96314.00;;;15.53;100.00
23229;BME280;11783;50.350;6.576;2023-05-09T03:03:42;96311.31;;;15.58;100.00
23229;BME280;11783;50.350;6.576;2023-05-09T03:06:08;96303.84;;;15.60;100.00
23229;BME280;11783;50.350;6.576;2023-05-09T03:08:33;96308.41;;;15.39;100.00
23229;BME280;11783;50.350;6.576;2023-05-09T03:10:58;96308.16;;;15.35;100.00
23229;BME280;11783;50.350;6.576;2023-05-09T03:13:23;96313.25;;;15.37;100.00
23229;BME280;11783;50.350;6.576;2023-05-09T03:15:49;96313.81;;;15.29;100.00
23229;BME280;11783;50.350;6.576;2023-05-09T03:18:14;96315.94;;;15.32;100.00
23229;BME280;11783;50.350;6.576;2023-05-09T03:20:39;96305.50;;;15.30;100.00
23229;BME280;11783;50.350;6.576;2023-05-09T03:23:05;96301.47;;;15.33;100.00
23229;BME280;11783;50.350;6.576;2023-05-09T03:25:30;96299.84;;;15.37;100.00
23229;BME280;11783;50.350;6.576;2023-05-09T03:27:55;96293.72;;;15.31;100.00
23229;BME280;11783;50.350;6.576;2023-05-09T03:30:21;96300.94;;;15.31;100.00
23229;BME280;11783;50.350;6.576;2023-05-09T03:32:46;96298.81;;;15.28;100.00
23229;BME280;11783;50.350;6.576;2023-05-09T03:35:11;96293.44;;;15.23;100.00
23229;BME280;11783;50.350;6.576;2023-05-09T03:37:37;96288.91;;;15.18;100.00
23229;BME280;11783;50.350;6.576;2023-05-09T03:40:02;96296.16;;;15.12;100.00
23229;BME280;11783;50.350;6.576;2023-05-09T03:42:28;96286.75;;;15.20;100.00
23229;BME280;11783;50.350;6.576;2023-05-09T03:44:53;96286.50;;;15.27;100.00
23229;BME280;11783;50.350;6.576;2023-05-09T03:47:19;96276.31;;;15.29;100.00
23229;BME280;11783;50.350;6.576;2023-05-09T03:49:44;96281.38;;;15.35;100.00
23229;BME280;11783;50.350;6.576;2023-05-09T03:52:10;96276.81;;;15.36;100.00
23229;BME280;11783;50.350;6.576;2023-05-09T03:54:35;96275.75;;;15.37;100.00
23229;BME280;11783;50.350;6.576;2023-05-09T03:57:01;96271.47;;;15.36;100.00
23229;BME280;11783;50.350;6.576;2023-05-09T03:59:26;96263.44;;;15.36;100.00
23229;BME280;11783;50.350;6.576;2023-05-09T04:01:51;96250.06;;;15.31;100.00
23229;BME280;11783;50.350;6.576;2023-05-09T04:04:17;96260.25;;;15.29;100.00
23229;BME280;11783;50.350;6.576;2023-05-09T04:06:43;96254.09;;;15.28;100.00
23229;BME280;11783;50.350;6.576;2023-05-09T04:09:08;96259.19;;;15.25;100.00
23229;BME280;11783;50.350;6.576;2023-05-09T04:11:33;96262.91;;;15.24;100.00
23229;BME280;11783;50.350;6.576;2023-05-09T04:13:59;96268.28;;;15.24;100.00
23229;BME280;11783;50.350;6.576;2023-05-09T04:16:24;96261.03;;;15.24;100.00
23229;BME280;11783;50.350;6.576;2023-05-09T04:18:50;96257.84;;;15.22;100.00
23229;BME280;11783;50.350;6.576;2023-05-09T04:21:15;96257.56;;;15.24;100.00
23229;BME280;11783;50.350;6.576;2023-05-09T04:23:41;96256.75;;;15.23;100.00
23229;BME280;11783;50.350;6.576;2023-05-09T04:26:08;96248.78;;;15.13;100.00
23229;BME280;11783;50.350;6.576;2023-05-09T04:28:34;96253.84;;;15.04;100.00
23229;BME280;11783;50.350;6.576;2023-05-09T04:31:00;96249.59;;;14.98;100.00
23229;BME280;11783;50.350;6.576;2023-05-09T04:33:25;96250.66;;;14.97;100.00
23229;BME280;11783;50.350;6.576;2023-05-09T04:35:53;96247.19;;;14.97;100.00
23229;BME280;11783;50.350;6.576;2023-05-09T04:38:18;96244.00;;;14.84;100.00
23229;BME280;11783;50.350;6.576;2023-05-09T04:40:43;96248.81;;;14.88;100.00
23229;BME280;11783;50.350;6.576;2023-05-09T04:43:09;96256.03;;;14.82;100.00
23229;BME280;11783;50.350;6.576;2023-05-09T04:45:34;96255.50;;;14.90;100.00
23229;BME280;11783;50.350;6.576;2023-05-09T04:48:00;96254.97;;;14.83;100.00
23229;BME280;11783;50.350;6.576;2023-05-09T04:50:25;96256.31;;;14.80;100.00
23229;BME280;11783;50.350;6.576;2023-05-09T04:52:50;96250.16;;;14.70;100.00
23229;BME280;11783;50.350;6.576;2023-05-09T04:55:16;96249.88;;;14.61;100.00
23229;BME280;11783;50.350;6.576;2023-05-09T04:57:41;96249.63;;;14.63;100.00
23229;BME280;11783;50.350;6.576;2023-05-09T05:00:07;96238.41;;;14.56;100.00
23229;BME280;11783;50.350;6.576;2023-05-09T05:02:32;96242.94;;;14.45;100.00
23229;BME280;11783;50.350;6.576;2023-05-09T05:04:57;96240.25;;;14.45;100.00
23229;BME280;11783;50.350;6.576;2023-05-09T05:07:23;96242.38;;;14.48;100.00
23229;BME280;11783;50.350;6.576;2023-05-09T05:09:48;96239.75;;;14.53;100.00
23229;BME280;11783;50.350;6.576;2023-05-09T05:12:13;96242.69;;;14.57;100.00
23229;BME280;11783;50.350;6.576;2023-05-09T05:14:39;96242.13;;;14.65;100.00
23229;BME280;11783;50.350;6.576;2023-05-09T05:17:04;96246.69;;;14.64;100.00
23229;BME280;11783;50.350;6.576;2023-05-09T05:19:30;96242.69;;;14.51;100.00
23229;BME280;11783;50.350;6.576;2023-05-09T05:21:55;96237.59;;;14.55;100.00
23229;BME280;11783;50.350;6.576;2023-05-09T05:24:21;96234.13;;;14.54;100.00
23229;BME280;11783;50.350;6.576;2023-05-09T05:26:46;96233.56;;;14.63;100.00
23229;BME280;11783;50.350;6.576;2023-05-09T05:29:11;96233.03;;;14.61;100.00
23229;BME280;11783;50.350;6.576;2023-05-09T05:31:37;96234.38;;;14.53;100.00
23229;BME280;11783;50.350;6.576;2023-05-09T05:34:02;96228.22;;;14.63;100.00
23229;BME280;11783;50.350;6.576;2023-05-09T05:36:27;96237.31;;;14.57;100.00
23229;BME280;11783;50.350;6.576;2023-05-09T05:38:53;96226.91;;;14.55;100.00
23229;BME280;11783;50.350;6.576;2023-05-09T05:41:18;96225.53;;;14.63;100.00
23229;BME280;11783;50.350;6.576;2023-05-09T05:43:43;96235.69;;;14.35;100.00
23229;BME280;11783;50.350;6.576;2023-05-09T05:46:09;96234.63;;;14.36;100.00
23229;BME280;11783;50.350;6.576;2023-05-09T05:48:34;96230.59;;;14.23;100.00
23229;BME280;11783;50.350;6.576;2023-05-09T05:51:00;96220.13;;;14.12;100.00
23229;BME280;11783;50.350;6.576;2023-05-09T05:53:25;96228.97;;;14.07;100.00
23229;BME280;11783;50.350;6.576;2023-05-09T05:55:50;96225.47;;;14.12;100.00
23229;BME280;11783;50.350;6.576;2023-05-09T05:58:16;96221.75;;;14.23;100.00
23229;BME280;11783;50.350;6.576;2023-05-09T06:00:41;96216.94;;;14.30;100.00
23229;BME280;11783;50.350;6.576;2023-05-09T06:03:06;96219.09;;;14.38;100.00
23229;BME280;11783;50.350;6.576;2023-05-09T06:05:32;96219.09;;;14.28;100.00
23229;BME280;11783;50.350;6.576;2023-05-09T06:07:58;96219.09;;;14.38;100.00
23229;BME280;11783;50.350;6.576;2023-05-09T06:10:23;96216.72;;;14.47;100.00
23229;BME280;11783;50.350;6.576;2023-05-09T06:12:48;96216.44;;;14.33;100.00
23229;BME280;11783;50.350;6.576;2023-05-09T06:15:14;96211.34;;;14.27;100.00
23229;BME280;11783;50.350;6.576;2023-05-09T06:17:39;96196.63;;;14.24;100.00
23229;BME280;11783;50.350;6.576;2023-05-09T06:20:05;96191.28;;;14.29;100.00
23229;BME280;11783;50.350;6.576;2023-05-09T06:22:31;96197.94;;;14.11;100.00
23229;BME280;11783;50.350;6.576;2023-05-09T06:24:56;96192.91;;;14.25;100.00
23229;BME280;11783;50.350;6.576;2023-05-09T06:27:21;96191.03;;;14.31;100.00
23229;BME280;11783;50.350;6.576;2023-05-09T06:29:47;96192.38;;;14.33;100.00
23229;BME280;11783;50.350;6.576;2023-05-09T06:32:12;96189.44;;;14.40;100.00
23229;BME280;11783;50.350;6.576;2023-05-09T06:34:37;96182.75;;;14.47;100.00
23229;BME280;11783;50.350;6.576;2023-05-09T06:37:03;96187.03;;;14.48;100.00
23229;BME280;11783;50.350;6.576;2023-05-09T06:39:28;96185.44;;;14.63;100.00
23229;BME280;11783;50.350;6.576;2023-05-09T06:41:53;96173.09;;;14.67;100.00
23229;BME280;11783;50.350;6.576;2023-05-09T06:44:19;96167.50;;;14.73;100.00
23229;BME280;11783;50.350;6.576;2023-05-09T06:46:44;96164.81;;;14.73;100.00
23229;BME280;11783;50.350;6.576;2023-05-09T06:49:09;96161.09;;;14.74;100.00
23229;BME280;11783;50.350;6.576;2023-05-09T06:51:35;96165.34;;;14.65;100.00
23229;BME280;11783;50.350;6.576;2023-05-09T06:54:00;96160.28;;;14.74;100.00
23229;BME280;11783;50.350;6.576;2023-05-09T06:56:26;96149.56;;;14.74;100.00
23229;BME280;11783;50.350;6.576;2023-05-09T06:58:51;96150.66;;;14.73;100.00
23229;BME280;11783;50.350;6.576;2023-05-09T07:01:16;96157.06;;;14.77;100.00
23229;BME280;11783;50.350;6.576;2023-05-09T07:03:42;96156.53;;;14.75;100.00
23229;BME280;11783;50.350;6.576;2023-05-09T07:06:08;96154.38;;;14.77;100.00
23229;BME280;11783;50.350;6.576;2023-05-09T07:08:33;96149.56;;;14.79;100.00
23229;BME280;11783;50.350;6.576;2023-05-09T07:10:58;96149.25;;;14.85;100.00
23229;BME280;11783;50.350;6.576;2023-05-09T07:13:24;96145.00;;;14.84;100.00
23229;BME280;11783;50.350;6.576;2023-05-09T07:15:49;96140.97;;;14.92;100.00
23229;BME280;11783;50.350;6.576;2023-05-09T07:18:14;96145.50;;;14.97;100.00
23229;BME280;11783;50.350;6.576;2023-05-09T07:20:40;96142.53;;;14.98;100.00
23229;BME280;11783;50.350;6.576;2023-05-09T07:23:05;96138.00;;;14.99;100.00
23229;BME280;11783;50.350;6.576;2023-05-09T07:25:31;96143.13;;;14.85;100.00
23229;BME280;11783;50.350;6.576;2023-05-09T07:27:56;96140.16;;;14.97;100.00
23229;BME280;11783;50.350;6.576;2023-05-09T07:30:22;96131.28;;;15.01;100.00
23229;BME280;11783;50.350;6.576;2023-05-09T07:32:47;96127.28;;;15.09;100.00
23229;BME280;11783;50.350;6.576;2023-05-09T07:35:12;96129.66;;;15.10;100.00
23229;BME280;11783;50.350;6.576;2023-05-09T07:37:38;96120.81;;;15.15;100.00
23229;BME280;11783;50.350;6.576;2023-05-09T07:40:03;96112.53;;;15.11;100.00
23229;BME280;11783;50.350;6.576;2023-05-09T07:42:30;96110.09;;;15.15;100.00
23229;BME280;11783;50.350;6.576;2023-05-09T07:44:56;96112.75;;;15.20;100.00
23229;BME280;11783;50.350;6.576;2023-05-09T07:47:23;96099.28;;;15.35;100.00
23229;BME280;11783;50.350;6.576;2023-05-09T07:49:49;96104.66;;;15.35;100.00
23229;BME280;11783;50.350;6.576;2023-05-09T07:52:14;96097.38;;;15.46;100.00
23229;BME280;11783;50.350;6.576;2023-05-09T07:54:41;96095.69;;;15.55;100.00
23229;BME280;11783;50.350;6.576;2023-05-09T07:57:06;96096.16;;;15.72;100.00
23229;BME280;11783;50.350;6.576;2023-05-09T07:59:31;96090.78;;;15.72;100.00
23229;BME280;11783;50.350;6.576;2023-05-09T08:01:57;96091.84;;;15.77;100.00
23229;BME280;11783;50.350;6.576;2023-05-09T08:04:22;96093.94;;;15.80;100.00
23229;BME280;11783;50.350;6.576;2023-05-09T08:06:47;96091.53;;;15.83;100.00
23229;BME280;11783;50.350;6.576;2023-05-09T08:09:13;96092.91;;;15.75;100.00
23229;BME280;11783;50.350;6.576;2023-05-09T08:11:38;96098.78;;;15.83;100.00
23229;BME280;11783;50.350;6.576;2023-05-09T08:14:04;96088.56;;;15.85;100.00
23229;BME280;11783;50.350;6.576;2023-05-09T08:16:29;96082.88;;;15.91;100.00
23229;BME280;11783;50.350;6.576;2023-05-09T08:18:54;96077.25;;;15.93;100.00
23229;BME280;11783;50.350;6.576;2023-05-09T08:21:20;96074.88;;;15.86;100.00
23229;BME280;11783;50.350;6.576;2023-05-09T08:23:46;96071.19;;;15.82;100.00
23229;BME280;11783;50.350;6.576;2023-05-09T08:26:11;96064.41;;;15.90;100.00
23229;BME280;11783;50.350;6.576;2023-05-09T08:28:37;96062.19;;;15.97;100.00
23229;BME280;11783;50.350;6.576;2023-05-09T08:31:02;96064.34;;;16.00;100.00
23229;BME280;11783;50.350;6.576;2023-05-09T08:33:27;96054.72;;;15.94;100.00
23229;BME280;11783;50.350;6.576;2023-05-09T08:35:53;96060.88;;;15.94;100.00
23229;BME280;11783;50.350;6.576;2023-05-09T08:38:19;96059.56;;;15.92;100.00
23229;BME280;11783;50.350;6.576;2023-05-09T08:40:45;96052.66;;;15.86;100.00
23229;BME280;11783;50.350;6.576;2023-05-09T08:43:11;96052.59;;;15.91;100.00
23229;BME280;11783;50.350;6.576;2023-05-09T08:45:50;96041.94;;;15.86;99.91
23229;BME280;11783;50.350;6.576;2023-05-09T08:48:16;96040.28;;;15.90;100.00
23229;BME280;11783;50.350;6.576;2023-05-09T08:50:43;96039.66;;;15.98;100.00
23229;BME280;11783;50.350;6.576;2023-05-09T08:53:08;96027.06;;;15.98;100.00
23229;BME280;11783;50.350;6.576;2023-05-09T08:55:34;96026.41;;;16.12;100.00
23229;BME280;11783;50.350;6.576;2023-05-09T08:57:59;96023.41;;;16.18;99.63
23229;BME280;11783;50.350;6.576;2023-05-09T09:00:25;96028.53;;;16.15;100.00
23229;BME280;11783;50.350;6.576;2023-05-09T09:02:51;96034.97;;;16.14;97.10
23229;BME280;11783;50.350;6.576;2023-05-09T09:05:18;96030.47;;;16.09;98.23
23229;BME280;11783;50.350;6.576;2023-05-09T09:07:44;96019.69;;;16.14;99.32
23229;BME280;11783;50.350;6.576;2023-05-09T09:10:10;96022.78;;;16.26;99.76
23229;BME280;11783;50.350;6.576;2023-05-09T09:12:38;96023.56;;;16.03;97.32
23229;BME280;11783;50.350;6.576;2023-05-09T09:15:04;96020.03;;;16.08;99.64
23229;BME280;11783;50.350;6.576;2023-05-09T09:17:32;96020.97;;;16.22;96.64
23229;BME280;11783;50.350;6.576;2023-05-09T09:19:58;96022.66;;;16.13;97.48
23229;BME280;11783;50.350;6.576;2023-05-09T09:22:28;96017.91;;;16.04;97.34
23229;BME280;11783;50.350;6.576;2023-05-09T09:24:59;96021.91;;;16.07;97.83
23229;BME280;11783;50.350;6.576;2023-05-09T09:27:25;96011.69;;;16.09;98.14
23229;BME280;11783;50.350;6.576;2023-05-09T09:29:51;96011.03;;;16.22;95.96
23229;BME280;11783;50.350;6.576;2023-05-09T09:32:16;96018.28;;;16.22;97.66
23229;BME280;11783;50.350;6.576;2023-05-09T09:34:43;96004.91;;;16.17;97.00
23229;BME280;11783;50.350;6.576;2023-05-09T09:37:23;96009.38;;;16.26;96.27
23229;BME280;11783;50.350;6.576;2023-05-09T09:39:55;96001.47;;;16.40;96.24
23229;BME280;11783;50.350;6.576;2023-05-09T09:42:20;95997.41;;;16.43;95.38
23229;BME280;11783;50.350;6.576;2023-05-09T09:44:55;95991.97;;;16.48;97.69
23229;BME280;11783;50.350;6.576;2023-05-09T09:47:29;95979.56;;;16.57;99.03
23229;BME280;11783;50.350;6.576;2023-05-09T09:49:55;95979.78;;;16.60;94.35
23229;BME280;11783;50.350;6.576;2023-05-09T09:52:24;95972.66;;;16.75;96.24
23229;BME280;11783;50.350;6.576;2023-05-09T09:54:49;95975.47;;;16.83;95.44
23229;BME280;11783;50.350;6.576;2023-05-09T09:57:32;95973.91;;;17.01;94.95
23229;BME280;11783;50.350;6.576;2023-05-09T09:59:59;95975.72;;;17.06;96.17
23229;BME280;11783;50.350;6.576;2023-05-09T10:02:24;95964.47;;;17.22;94.75
23229;BME280;11783;50.350;6.576;2023-05-09T10:04:50;95965.72;;;17.30;95.75
23229;BME280;11783;50.350;6.576;2023-05-09T10:07:18;95972.81;;;17.40;91.71
23229;BME280;11783;50.350;6.576;2023-05-09T10:09:46;95963.94;;;17.39;91.04
23229;BME280;11783;50.350;6.576;2023-05-09T10:12:13;95943.25;;;17.40;90.93
23229;BME280;11783;50.350;6.576;2023-05-09T10:14:42;95950.22;;;17.41;90.26
23229;BME280;11783;50.350;6.576;2023-05-09T10:17:10;95950.06;;;17.51;91.42
23229;BME280;11783;50.350;6.576;2023-05-09T10:19:40;95946.41;;;17.61;93.25
23229;BME280;11783;50.350;6.576;2023-05-09T10:22:09;95937.19;;;17.67;92.36
23229;BME280;11783;50.350;6.576;2023-05-09T10:24:40;95936.63;;;17.70;91.49
23229;BME280;11783;50.350;6.576;2023-05-09T10:27:09;95927.28;;;17.81;89.92
23229;BME280;11783;50.350;6.576;2023-05-09T10:29:48;95924.19;;;17.74;88.06
23229;BME280;11783;50.350;6.576;2023-05-09T10:32:31;95921.09;;;17.80;92.04
23229;BME280;11783;50.350;6.576;2023-05-09T10:35:01;95919.16;;;17.67;89.94
23229;BME280;11783;50.350;6.576;2023-05-09T10:37:28;95915.53;;;17.77;87.25
23229;BME280;11783;50.350;6.576;2023-05-09T10:39:55;95914.56;;;17.87;89.49
23229;BME280;11783;50.350;6.576;2023-05-09T10:42:21;95905.41;;;17.88;87.51
23229;BME280;11783;50.350;6.576;2023-05-09T10:44:48;95908.19;;;17.96;88.99
23229;BME280;11783;50.350;6.576;2023-05-09T10:47:14;95909.97;;;18.01;86.60
23229;BME280;11783;50.350;6.576;2023-05-09T10:49:39;95904.22;;;18.07;89.49
23229;BME280;11783;50.350;6.576;2023-05-09T10:52:05;95902.31;;;18.22;89.54
23229;BME280;11783;50.350;6.576;2023-05-09T10:54:30;95901.22;;;18.36;90.11
23229;BME280;11783;50.350;6.576;2023-05-09T10:56:58;95910.06;;;18.37;84.61
23229;BME280;11783;50.350;6.576;2023-05-09T10:59:39;95894.84;;;18.32;85.28
23229;BME280;11783;50.350;6.576;2023-05-09T11:02:06;95895.34;;;18.07;83.06
23229;BME280;11783;50.350;6.576;2023-05-09T11:04:37;95877.81;;;17.96;84.83
23229;BME280;11783;50.350;6.576;2023-05-09T11:07:20;95873.34;;;18.05;87.42
23229;BME280;11783;50.350;6.576;2023-05-09T11:10:05;95869.44;;;18.25;87.42
23229;BME280;11783;50.350;6.576;2023-05-09T11:12:31;95875.09;;;18.37;85.72
23229;BME280;11783;50.350;6.576;2023-05-09T11:15:04;95862.16;;;18.39;84.11
23229;BME280;11783;50.350;6.576;2023-05-09T11:17:30;95856.28;;;18.37;83.60
23229;BME280;11783;50.350;6.576;2023-05-09T11:20:04;95860.25;;;18.39;83.81
23229;BME280;11783;50.350;6.576;2023-05-09T11:22:37;95857.78;;;18.43;85.17
23229;BME280;11783;50.350;6.576;2023-05-09T11:25:12;95846.28;;;18.51;83.15
23229;BME280;11783;50.350;6.576;2023-05-09T11:27:57;95846.59;;;18.50;82.04
23229;BME280;11783;50.350;6.576;2023-05-09T11:30:34;95846.41;;;18.46;81.63
23229;BME280;11783;50.350;6.576;2023-05-09T11:33:00;95834.41;;;18.52;82.71
23229;BME280;11783;50.350;6.576;2023-05-09T11:35:26;95833.06;;;18.41;81.84
23229;BME280;11783;50.350;6.576;2023-05-09T11:38:03;95824.47;;;18.39;82.46
23229;BME280;11783;50.350;6.576;2023-05-09T11:40:30;95824.16;;;18.54;84.21
23229;BME280;11783;50.350;6.576;2023-05-09T11:42:56;95820.34;;;18.55;82.47
23229;BME280;11783;50.350;6.576;2023-05-09T11:45:30;95817.47;;;18.65;81.73
23229;BME280;11783;50.350;6.576;2023-05-09T11:47:56;95811.06;;;18.75;81.56
23229;BME280;11783;50.350;6.576;2023-05-09T11:50:21;95802.31;;;18.69;81.57
23229;BME280;11783;50.350;6.576;2023-05-09T11:52:47;95799.50;;;18.74;83.48
23229;BME280;11783;50.350;6.576;2023-05-09T11:55:15;95794.00;;;18.80;80.08
23229;BME280;11783;50.350;6.576;2023-05-09T11:57:47;95802.56;;;18.82;80.77
23229;BME280;11783;50.350;6.576;2023-05-09T12:00:17;95807.69;;;18.56;81.09
23229;BME280;11783;50.350;6.576;2023-05-09T12:02:43;95789.78;;;18.51;80.15
23229;BME280;11783;50.350;6.576;2023-05-09T12:05:13;95782.81;;;18.50;82.25
23229;BME280;11783;50.350;6.576;2023-05-09T12:07:39;95773.50;;;18.70;83.98
23229;BME280;11783;50.350;6.576;2023-05-09T12:10:09;95774.53;;;18.83;82.13
23229;BME280;11783;50.350;6.576;2023-05-09T12:12:40;95770.97;;;18.96;82.15
23229;BME280;11783;50.350;6.576;2023-05-09T12:15:07;95769.50;;;18.90;78.71
23229;BME280;11783;50.350;6.576;2023-05-09T12:17:36;95765.09;;;18.94;76.31
23229;BME280;11783;50.350;6.576;2023-05-09T12:20:02;95767.44;;;18.87;80.11
23229;BME280;11783;50.350;6.576;2023-05-09T12:22:30;95760.28;;;18.82;80.76
23229;BME280;11783;50.350;6.576;2023-05-09T12:24:58;95758.63;;;18.59;78.95
23229;BME280;11783;50.350;6.576;2023-05-09T12:27:25;95769.28;;;18.41;80.29
23229;BME280;11783;50.350;6.576;2023-05-09T12:29:52;95764.28;;;18.49;80.03
23229;BME280;11783;50.350;6.576;2023-05-09T12:32:21;95769.44;;;18.23;81.51
23229;BME280;11783;50.350;6.576;2023-05-09T12:34:46;95769.03;;;18.15;83.93
23229;BME280;11783;50.350;6.576;2023-05-09T12:37:17;95772.25;;;18.04;86.59
23229;BME280;11783;50.350;6.576;2023-05-09T12:39:45;95768.19;;;17.93;89.30
23229;BME280;11783;50.350;6.576;2023-05-09T12:42:26;95767.16;;;18.02;91.68
23229;BME280;11783;50.350;6.576;2023-05-09T12:44:52;95757.00;;;17.99;93.88
23229;BME280;11783;50.350;6.576;2023-05-09T12:47:18;95760.97;;;18.02;95.20
23229;BME280;11783;50.350;6.576;2023-05-09T12:49:47;95765.78;;;18.05;95.33
23229;BME280;11783;50.350;6.576;2023-05-09T12:52:19;95761.19;;;18.05;97.30
23229;BME280;11783;50.350;6.576;2023-05-09T12:54:45;95773.66;;;17.88;96.81
23229;BME280;11783;50.350;6.576;2023-05-09T12:57:20;95771.88;;;17.69;98.16
23229;BME280;11783;50.350;6.576;2023-05-09T12:59:47;95762.31;;;17.49;99.97
23229;BME280;11783;50.350;6.576;2023-05-09T13:02:12;95764.78;;;17.60;100.00